Time;durP1;ratioP1;P1;durP2;ratioP2;P2;SDS_P1;SDS_P2;PMS_P1;PMS_P2;Temp;Humidity;BMP_temperature;BMP_pressure;BME280_temperature;BME280_humidity;BME280_pressure;Samples;Min_cycle;Max_cycle;Signal;HPM_P1;HPM_P2
2024/04/13 00:01:59;;;;;;;;;;;;;;;9.71;100.00;101377.84;106431;1259;74277;-88
2024/04/13 00:04:26;;;;;;;;;;;;;;;9.69;100.00;101380.98;105978;1261;69115;-85
2024/04/13 00:06:54;;;;;;;;;;;;;;;9.65;100.00;101380.74;106026;1262;72792;-85
2024/04/13 00:09:22;;;;;;;;;;;;;;;9.59;100.00;101382.36;105965;1257;61993;-89
2024/04/13 00:11:49;;;;;;;;;;;;;;;9.54;100.00;101381.09;105871;1262;62221;-88
2024/04/13 00:14:17;;;;;;;;;;;;;;;9.49;100.00;101376.09;105888;1257;76572;-85
2024/04/13 00:16:45;;;;;;;;;;;;;;;9.40;100.00;101373.34;106566;1257;68930;-89
2024/04/13 00:19:12;;;;;;;;;;;;;;;9.34;100.00;101367.56;105938;1263;73249;-89
2024/04/13 00:21:40;;;;;;;;;;;;;;;9.29;100.00;101367.70;105959;1257;62088;-89
2024/04/13 00:24:10;;;;;;;;;;;;;;;9.21;100.00;101364.75;105954;1257;62219;-85
2024/04/13 00:26:37;;;;;;;;;;;;;;;9.14;100.00;101367.69;105905;1257;73617;-85
2024/04/13 00:29:05;;;;;;;;;;;;;;;9.03;100.00;101366.73;105985;1257;68845;-85
2024/04/13 00:31:33;;;;;;;;;;;;;;;8.93;100.00;101369.36;106499;1262;72468;-86
2024/04/13 00:34:01;;;;;;;;;;;;;;;8.87;100.00;101369.84;105975;1257;62201;-85
2024/04/13 00:36:29;;;;;;;;;;;;;;;8.82;100.00;101374.94;106058;1258;62223;-89
2024/04/13 00:38:56;;;;;;;;;;;;;;;8.76;100.00;101372.64;106022;1258;75550;-85
2024/04/13 00:41:24;;;;;;;;;;;;;;;8.71;100.00;101370.41;106077;1260;68869;-88
2024/04/13 00:43:51;;;;;;;;;;;;;;;8.64;100.00;101371.49;106239;1262;71229;-85
2024/04/13 00:46:23;;;;;;;;;;;;;;;8.60;100.00;101371.76;106037;1258;62212;-89
2024/04/13 00:48:51;;;;;;;;;;;;;;;8.57;100.00;101374.80;105963;1256;61928;-85
2024/04/13 00:51:19;;;;;;;;;;;;;;;8.54;100.00;101372.84;105972;1256;75532;-89
2024/04/13 00:53:46;;;;;;;;;;;;;;;8.52;100.00;101373.01;106034;1257;68521;-85
2024/04/13 00:56:14;;;;;;;;;;;;;;;8.46;100.00;101371.31;106256;1257;72739;-87
2024/04/13 00:58:41;;;;;;;;;;;;;;;8.41;100.00;101374.80;105919;1262;62132;-89
2024/04/13 01:01:10;;;;;;;;;;;;;;;8.35;100.00;101374.88;105965;1257;62156;-85
2024/04/13 01:03:38;;;;;;;;;;;;;;;8.26;100.00;101370.98;105962;1262;75526;-89
2024/04/13 01:06:08;;;;;;;;;;;;;;;8.17;100.00;101374.56;105955;1256;68122;-89
2024/04/13 01:08:35;;;;;;;;;;;;;;;8.08;100.00;101377.55;105858;1257;74627;-85
2024/04/13 01:11:03;;;;;;;;;;;;;;;8.03;100.00;101376.09;106752;1257;62051;-85
2024/04/13 01:13:31;;;;;;;;;;;;;;;8.02;100.00;101373.45;105937;1257;62155;-85
2024/04/13 01:16:01;;;;;;;;;;;;;;;8.04;100.00;101377.59;105850;1263;75522;-85
2024/04/13 01:18:29;;;;;;;;;;;;;;;8.01;100.00;101375.45;105869;1257;71097;-86
2024/04/13 01:20:57;;;;;;;;;;;;;;;7.99;100.00;101375.72;106064;1261;73219;-85
2024/04/13 01:23:25;;;;;;;;;;;;;;;7.95;100.00;101375.03;105974;1257;62079;-89
2024/04/13 01:25:52;;;;;;;;;;;;;;;7.93;100.00;101377.45;106446;1257;62045;-87
2024/04/13 01:28:20;;;;;;;;;;;;;;;7.91;100.00;101375.61;105857;1258;74733;-85
2024/04/13 01:30:47;;;;;;;;;;;;;;;7.87;100.00;101384.56;105935;1261;68891;-85
2024/04/13 01:33:14;;;;;;;;;;;;;;;7.81;100.00;101386.31;106007;1261;71476;-85
2024/04/13 01:35:42;;;;;;;;;;;;;;;7.73;100.00;101383.53;105881;1260;62156;-85
2024/04/13 01:38:10;;;;;;;;;;;;;;;7.71;100.00;101385.61;105992;1257;62211;-85
2024/04/13 01:40:37;;;;;;;;;;;;;;;7.69;100.00;101388.13;106385;1256;73302;-89
2024/04/13 01:43:05;;;;;;;;;;;;;;;7.77;100.00;101389.87;105977;1257;68468;-84
2024/04/13 01:45:32;;;;;;;;;;;;;;;7.87;100.00;101396.09;105975;1257;72636;-84
2024/04/13 01:48:00;;;;;;;;;;;;;;;7.99;100.00;101397.48;105983;1257;62074;-84
2024/04/13 01:50:27;;;;;;;;;;;;;;;8.14;100.00;101397.11;106110;1257;62235;-84
2024/04/13 01:52:55;;;;;;;;;;;;;;;8.28;100.00;101398.96;106067;1260;75992;-84
2024/04/13 01:55:22;;;;;;;;;;;;;;;8.34;100.00;101396.16;106536;1257;69295;-85
2024/04/13 01:57:50;;;;;;;;;;;;;;;8.45;100.00;101393.30;105961;1258;72645;-90
2024/04/13 02:00:18;;;;;;;;;;;;;;;8.53;100.00;101386.66;106022;1261;61925;-83
2024/04/13 02:02:46;;;;;;;;;;;;;;;8.60;100.00;101384.49;105977;1261;61900;-85
2024/04/13 02:05:13;;;;;;;;;;;;;;;8.67;100.00;101382.62;105984;1259;74451;-87
2024/04/13 02:07:41;;;;;;;;;;;;;;;8.70;100.00;101385.45;105845;1264;69772;-88
2024/04/13 02:10:10;;;;;;;;;;;;;;;8.69;100.00;101379.05;106267;1257;71690;-89
2024/04/13 02:12:37;;;;;;;;;;;;;;;8.68;100.00;101380.49;105943;1256;62034;-89
2024/04/13 02:15:05;;;;;;;;;;;;;;;8.69;100.00;101383.04;106048;1257;62109;-89
2024/04/13 02:17:32;;;;;;;;;;;;;;;8.69;100.00;101382.05;105986;1257;76013;-84
2024/04/13 02:20:00;;;;;;;;;;;;;;;8.69;100.00;101377.09;105970;1262;68861;-84
2024/04/13 02:22:32;;;;;;;;;;;;;;;8.72;100.00;101380.45;106478;1262;71495;-84
2024/04/13 02:25:02;;;;;;;;;;;;;;;8.74;100.00;101380.23;106029;1256;62120;-89
2024/04/13 02:27:29;;;;;;;;;;;;;;;8.78;100.00;101378.14;105951;1262;62015;-87
2024/04/13 02:29:57;;;;;;;;;;;;;;;8.80;100.00;101378.72;105939;1257;74479;-89
2024/04/13 02:32:25;;;;;;;;;;;;;;;8.80;100.00;101376.63;105931;1263;68519;-84
2024/04/13 02:34:53;;;;;;;;;;;;;;;8.78;100.00;101376.87;106014;1258;71423;-85
2024/04/13 02:37:22;;;;;;;;;;;;;;;8.73;100.00;101379.79;106487;1262;62153;-90
2024/04/13 02:39:50;;;;;;;;;;;;;;;8.78;100.00;101380.15;106049;1260;61976;-89
2024/04/13 02:42:18;;;;;;;;;;;;;;;8.81;100.00;101380.58;106232;1257;76489;-83
2024/04/13 02:44:47;;;;;;;;;;;;;;;8.89;100.00;101385.81;105996;1256;69163;-88
2024/04/13 02:47:14;;;;;;;;;;;;;;;8.94;100.00;101385.50;105960;1262;71495;-84
2024/04/13 02:49:41;;;;;;;;;;;;;;;8.96;100.00;101382.38;105915;1256;62072;-84
2024/04/13 02:52:09;;;;;;;;;;;;;;;8.98;100.00;101384.42;106122;1256;61965;-87
2024/04/13 02:54:38;;;;;;;;;;;;;;;9.01;100.00;101381.53;105921;1256;75618;-89
2024/04/13 02:57:05;;;;;;;;;;;;;;;9.04;100.00;101377.94;105940;1257;67355;-83
2024/04/13 02:59:33;;;;;;;;;;;;;;;9.05;100.00;101380.91;105896;1259;71335;-88
2024/04/13 03:02:01;;;;;;;;;;;;;;;9.05;100.00;101375.87;105947;1264;62143;-85
2024/04/13 03:04:28;;;;;;;;;;;;;;;9.02;100.00;101374.35;105913;1260;62495;-89
2024/04/13 03:06:57;;;;;;;;;;;;;;;8.98;100.00;101376.58;106824;1262;76005;-88
2024/04/13 03:09:25;;;;;;;;;;;;;;;8.90;100.00;101374.21;106073;1257;68467;-84
2024/04/13 03:11:52;;;;;;;;;;;;;;;8.83;100.00;101382.20;106196;1257;72720;-84
2024/04/13 03:14:20;;;;;;;;;;;;;;;8.83;100.00;101384.49;106001;1261;62070;-89
2024/04/13 03:16:47;;;;;;;;;;;;;;;8.81;100.00;101382.17;105971;1259;62023;-85
2024/04/13 03:19:15;;;;;;;;;;;;;;;8.80;100.00;101382.27;106122;1258;74213;-85
2024/04/13 03:21:43;;;;;;;;;;;;;;;8.83;100.00;101381.16;106308;1262;67393;-84
2024/04/13 03:24:11;;;;;;;;;;;;;;;8.87;100.00;101378.61;105881;1257;71182;-88
2024/04/13 03:26:38;;;;;;;;;;;;;;;8.83;100.00;101379.14;105888;1257;62125;-84
2024/04/13 03:29:06;;;;;;;;;;;;;;;8.87;100.00;101381.78;105869;1262;62154;-83
2024/04/13 03:31:33;;;;;;;;;;;;;;;8.92;100.00;101380.61;106039;1260;75975;-88
2024/04/13 03:34:02;;;;;;;;;;;;;;;9.00;100.00;101377.91;106001;1260;67236;-84
2024/04/13 03:36:31;;;;;;;;;;;;;;;9.07;100.00;101374.29;106570;1257;72935;-84
2024/04/13 03:38:59;;;;;;;;;;;;;;;9.17;100.00;101378.75;105963;1257;62159;-83
2024/04/13 03:41:26;;;;;;;;;;;;;;;9.30;100.00;101375.48;105926;1256;61947;-83
2024/04/13 03:43:54;;;;;;;;;;;;;;;9.40;100.00;101369.92;105804;1257;75430;-88
2024/04/13 03:46:21;;;;;;;;;;;;;;;9.55;100.00;101369.68;106169;1257;67444;-84
2024/04/13 03:48:49;;;;;;;;;;;;;;;9.66;100.00;101369.03;106425;1256;72974;-86
2024/04/13 03:51:17;;;;;;;;;;;;;;;9.78;100.00;101368.77;106092;1256;61878;-85
2024/04/13 03:53:44;;;;;;;;;;;;;;;9.88;100.00;101372.35;105988;1260;61977;-88
2024/04/13 03:56:13;;;;;;;;;;;;;;;9.98;100.00;101376.69;105804;1256;74293;-88
2024/04/13 03:58:40;;;;;;;;;;;;;;;10.11;100.00;101370.25;106135;1256;68480;-88
2024/04/13 04:01:08;;;;;;;;;;;;;;;10.24;100.00;101369.42;106098;1260;72383;-85
2024/04/13 04:03:35;;;;;;;;;;;;;;;10.37;100.00;101372.60;106016;1267;62118;-89
2024/04/13 04:06:04;;;;;;;;;;;;;;;10.51;100.00;101372.52;106232;1260;62040;-89
2024/04/13 04:08:33;;;;;;;;;;;;;;;10.69;100.00;101369.36;106112;1260;74719;-84
2024/04/13 04:11:01;;;;;;;;;;;;;;;10.84;100.00;101363.55;106248;1256;69322;-88
2024/04/13 04:13:28;;;;;;;;;;;;;;;11.01;100.00;101360.91;105958;1260;71474;-84
2024/04/13 04:15:56;;;;;;;;;;;;;;;11.15;100.00;101363.86;106016;1258;62032;-89
2024/04/13 04:18:24;;;;;;;;;;;;;;;11.26;100.00;101364.08;106282;1256;62303;-84
2024/04/13 04:20:51;;;;;;;;;;;;;;;11.33;100.00;101364.40;106073;1257;73528;-85
2024/04/13 04:23:19;;;;;;;;;;;;;;;11.44;100.00;101362.84;106027;1256;66600;-84
2024/04/13 04:25:47;;;;;;;;;;;;;;;11.54;100.00;101359.14;105990;1257;72715;-85
2024/04/13 04:28:14;;;;;;;;;;;;;;;11.66;100.00;101363.53;105940;1257;62140;-89
2024/04/13 04:30:44;;;;;;;;;;;;;;;11.79;100.00;101361.48;105989;1256;62176;-84
2024/04/13 04:33:12;;;;;;;;;;;;;;;11.88;100.00;101360.77;105945;1256;77742;-88
2024/04/13 04:35:40;;;;;;;;;;;;;;;12.03;100.00;101362.56;106733;1262;67115;-87
2024/04/13 04:38:10;;;;;;;;;;;;;;;12.18;100.00;101355.48;106428;1256;72070;-84
2024/04/13 04:40:38;;;;;;;;;;;;;;;12.24;100.00;101354.92;106333;1256;62116;-85
2024/04/13 04:43:05;;;;;;;;;;;;;;;12.28;100.00;101357.23;106462;1256;62172;-89
2024/04/13 04:45:34;;;;;;;;;;;;;;;12.36;100.00;101356.17;106110;1256;75540;-90
2024/04/13 04:48:02;;;;;;;;;;;;;;;12.45;100.00;101356.58;106883;1256;68635;-88
2024/04/13 04:50:29;;;;;;;;;;;;;;;12.53;100.00;101352.70;106054;1256;72730;-85
2024/04/13 04:52:57;;;;;;;;;;;;;;;12.62;100.00;101357.77;106135;1261;62023;-90
2024/04/13 04:55:25;;;;;;;;;;;;;;;12.68;100.00;101354.66;106584;1257;62131;-90
2024/04/13 04:57:52;;;;;;;;;;;;;;;12.75;100.00;101356.04;106353;1257;74725;-85
2024/04/13 05:00:20;;;;;;;;;;;;;;;12.83;100.00;101355.23;106072;1257;68870;-85
2024/04/13 05:02:47;;;;;;;;;;;;;;;12.89;100.00;101355.02;105973;1261;72983;-86
2024/04/13 05:05:15;;;;;;;;;;;;;;;12.94;100.00;101349.48;106441;1262;62143;-90
2024/04/13 05:07:42;;;;;;;;;;;;;;;13.07;100.00;101351.40;105832;1257;62062;-86
2024/04/13 05:10:10;;;;;;;;;;;;;;;13.12;100.00;101353.77;106029;1256;75522;-89
2024/04/13 05:12:38;;;;;;;;;;;;;;;13.16;100.00;101351.24;106092;1257;67206;-90
2024/04/13 05:15:06;;;;;;;;;;;;;;;13.19;100.00;101352.73;106375;1256;73575;-90
2024/04/13 05:17:33;;;;;;;;;;;;;;;13.18;100.00;101351.95;106085;1258;62163;-86
2024/04/13 05:20:04;;;;;;;;;;;;;;;13.27;100.00;101351.31;106008;1256;62079;-89
2024/04/13 05:22:31;;;;;;;;;;;;;;;13.34;100.00;101343.59;106014;1257;75544;-85
2024/04/13 05:24:59;;;;;;;;;;;;;;;13.42;100.00;101337.10;105926;1259;69719;-85
2024/04/13 05:27:26;;;;;;;;;;;;;;;13.47;100.00;101335.98;106690;1256;70122;-85
2024/04/13 05:29:55;;;;;;;;;;;;;;;13.50;100.00;101332.36;105976;1257;62116;-86
2024/04/13 05:32:23;;;;;;;;;;;;;;;13.56;100.00;101333.11;105924;1261;61934;-85
2024/04/13 05:34:50;;;;;;;;;;;;;;;13.64;100.00;101330.02;105916;1257;75489;-90
2024/04/13 05:37:18;;;;;;;;;;;;;;;13.75;100.00;101328.89;106061;1258;67318;-89
2024/04/13 05:39:45;;;;;;;;;;;;;;;13.89;100.00;101326.76;106003;1258;72472;-85
2024/04/13 05:42:13;;;;;;;;;;;;;;;14.02;100.00;101323.25;106336;1262;62208;-90
2024/04/13 05:44:41;;;;;;;;;;;;;;;14.15;100.00;101316.86;105913;1261;62027;-85
2024/04/13 05:47:08;;;;;;;;;;;;;;;14.24;100.00;101316.34;106322;1257;74708;-90
2024/04/13 05:49:36;;;;;;;;;;;;;;;14.38;100.00;101308.88;105984;1256;68495;-90
2024/04/13 05:52:04;;;;;;;;;;;;;;;14.57;100.00;101314.56;106023;1257;71190;-85
2024/04/13 05:54:31;;;;;;;;;;;;;;;14.74;100.00;101307.30;106024;1258;62147;-90
2024/04/13 05:56:59;;;;;;;;;;;;;;;14.87;100.00;101305.50;106562;1256;62129;-91
2024/04/13 05:59:26;;;;;;;;;;;;;;;15.04;100.00;101306.95;106174;1256;74312;-90
2024/04/13 06:01:54;;;;;;;;;;;;;;;15.15;100.00;101306.58;106217;1256;68630;-90
2024/04/13 06:04:21;;;;;;;;;;;;;;;15.24;100.00;101307.82;105947;1258;70473;-90
2024/04/13 06:06:50;;;;;;;;;;;;;;;15.35;100.00;101309.04;106011;1256;62126;-89
2024/04/13 06:09:18;;;;;;;;;;;;;;;15.48;100.00;101308.07;105985;1257;61936;-90
2024/04/13 06:11:45;;;;;;;;;;;;;;;15.60;100.00;101308.61;106008;1256;75759;-90
2024/04/13 06:14:15;;;;;;;;;;;;;;;15.74;100.00;101307.65;106611;1256;67760;-89
2024/04/13 06:16:44;;;;;;;;;;;;;;;15.87;100.00;101306.63;105999;1257;72694;-90
2024/04/13 06:19:13;;;;;;;;;;;;;;;16.00;100.00;101306.89;106070;1256;62040;-89
2024/04/13 06:21:41;;;;;;;;;;;;;;;16.10;100.00;101302.86;105955;1262;62035;-90
2024/04/13 06:24:08;;;;;;;;;;;;;;;16.24;100.00;101300.23;106081;1256;75590;-91
2024/04/13 06:26:36;;;;;;;;;;;;;;;16.40;100.00;101295.77;106118;1256;69474;-90
2024/04/13 06:29:03;;;;;;;;;;;;;;;16.47;100.00;101298.20;106539;1256;72796;-91
2024/04/13 06:31:31;;;;;;;;;;;;;;;16.50;100.00;101296.61;106182;1257;61968;-91
2024/04/13 06:33:58;;;;;;;;;;;;;;;16.59;100.00;101289.69;106333;1256;62160;-91
2024/04/13 06:36:26;;;;;;;;;;;;;;;16.71;100.00;101291.72;106176;1261;75433;-91
2024/04/13 06:38:54;;;;;;;;;;;;;;;16.97;100.00;101289.07;106025;1261;68593;-90
2024/04/13 06:41:21;;;;;;;;;;;;;;;17.12;97.32;101287.52;105984;1257;71482;-91
2024/04/13 06:43:49;;;;;;;;;;;;;;;17.16;95.17;101284.20;106448;1256;62245;-90
2024/04/13 06:46:20;;;;;;;;;;;;;;;17.21;94.78;101287.83;105970;1257;62156;-90
2024/04/13 06:48:47;;;;;;;;;;;;;;;17.31;93.28;101283.32;106068;1255;75748;-90
2024/04/13 06:51:15;;;;;;;;;;;;;;;17.42;93.74;101282.55;106065;1256;70899;-90
2024/04/13 06:53:42;;;;;;;;;;;;;;;17.53;90.76;101279.94;106085;1256;74766;-90
2024/04/13 06:56:10;;;;;;;;;;;;;;;17.66;88.86;101275.46;105982;1257;62250;-90
2024/04/13 06:58:37;;;;;;;;;;;;;;;17.69;85.93;101276.25;106769;1256;62070;-90
2024/04/13 07:01:05;;;;;;;;;;;;;;;17.70;84.59;101275.78;106075;1256;74914;-89
2024/04/13 07:03:33;;;;;;;;;;;;;;;17.67;84.66;101271.41;106094;1259;70283;-90
2024/04/13 07:06:00;;;;;;;;;;;;;;;17.72;83.90;101266.02;106122;1257;71142;-90
2024/04/13 07:08:28;;;;;;;;;;;;;;;17.63;85.94;101263.53;106168;1257;62158;-88
2024/04/13 07:10:56;;;;;;;;;;;;;;;17.68;85.33;101259.55;106188;1260;62201;-84
2024/04/13 07:13:23;;;;;;;;;;;;;;;17.75;85.40;101257.06;106404;1256;74221;-89
2024/04/13 07:15:51;;;;;;;;;;;;;;;17.76;86.18;101256.25;106307;1261;67031;-88
2024/04/13 07:18:18;;;;;;;;;;;;;;;17.80;84.72;101254.59;106524;1256;72707;-83
2024/04/13 07:20:46;;;;;;;;;;;;;;;17.84;84.24;101254.23;106305;1257;62433;-89
2024/04/13 07:23:16;;;;;;;;;;;;;;;17.97;83.43;101257.00;106210;1256;62161;-89
2024/04/13 07:25:43;;;;;;;;;;;;;;;18.17;78.66;101253.78;106674;1257;77663;-90
2024/04/13 07:28:11;;;;;;;;;;;;;;;18.29;77.76;101255.23;106567;1257;67321;-90
2024/04/13 07:30:38;;;;;;;;;;;;;;;18.38;77.83;101252.23;105950;1259;71505;-85
2024/04/13 07:33:06;;;;;;;;;;;;;;;18.49;76.15;101251.61;106066;1260;62166;-89
2024/04/13 07:35:34;;;;;;;;;;;;;;;18.60;76.15;101243.88;106075;1261;61967;-85
2024/04/13 07:38:01;;;;;;;;;;;;;;;18.79;76.60;101239.55;105975;1256;75393;-85
2024/04/13 07:40:28;;;;;;;;;;;;;;;19.04;74.10;101241.40;106007;1257;70999;-90
2024/04/13 07:42:56;;;;;;;;;;;;;;;19.25;69.17;101239.33;106435;1259;71261;-86
2024/04/13 07:45:24;;;;;;;;;;;;;;;19.39;66.79;101233.34;106126;1257;62760;-90
2024/04/13 07:47:51;;;;;;;;;;;;;;;19.48;65.83;101226.11;106046;1260;62166;-88
2024/04/13 07:50:19;;;;;;;;;;;;;;;19.69;64.76;101223.10;105921;1262;75616;-84
2024/04/13 07:52:47;;;;;;;;;;;;;;;19.86;60.20;101221.67;105928;1256;69399;-84
2024/04/13 07:55:14;;;;;;;;;;;;;;;19.83;56.51;101223.77;106284;1260;73051;-85
2024/04/13 07:57:42;;;;;;;;;;;;;;;19.75;57.60;101220.71;105944;1256;62156;-85
2024/04/13 08:00:10;;;;;;;;;;;;;;;19.84;57.29;101214.85;105961;1260;62069;-85
2024/04/13 08:02:40;;;;;;;;;;;;;;;19.89;56.04;101214.41;106005;1256;75393;-90
2024/04/13 08:05:07;;;;;;;;;;;;;;;19.83;53.77;101216.73;106008;1260;68819;-92
2024/04/13 08:07:35;;;;;;;;;;;;;;;19.79;53.15;101215.44;106033;1256;73785;-86
2024/04/13 08:10:03;;;;;;;;;;;;;;;19.74;52.99;101210.86;106759;1259;62160;-90
2024/04/13 08:12:31;;;;;;;;;;;;;;;19.73;52.62;101209.45;106046;1256;61937;-90
2024/04/13 08:14:59;;;;;;;;;;;;;;;19.62;53.43;101207.38;105876;1257;76367;-85
2024/04/13 08:17:27;;;;;;;;;;;;;;;19.48;52.80;101204.08;106026;1257;70682;-88
2024/04/13 08:19:56;;;;;;;;;;;;;;;19.50;53.22;101198.45;106105;1256;72351;-91
2024/04/13 08:22:27;;;;;;;;;;;;;;;19.55;54.47;101194.73;105868;1256;62238;-91
2024/04/13 08:24:55;;;;;;;;;;;;;;;19.69;55.80;101194.30;106496;1256;62059;-91
2024/04/13 08:27:23;;;;;;;;;;;;;;;19.83;54.08;101187.23;106170;1256;74497;-85
2024/04/13 08:29:50;;;;;;;;;;;;;;;19.99;52.99;101181.27;106000;1260;70997;-90
2024/04/13 08:32:18;;;;;;;;;;;;;;;20.20;52.84;101178.57;105904;1261;74490;-89
2024/04/13 08:34:45;;;;;;;;;;;;;;;20.43;50.69;101174.61;105977;1262;62179;-85
2024/04/13 08:37:13;;;;;;;;;;;;;;;20.61;49.06;101171.79;105982;1260;62267;-85
2024/04/13 08:39:41;;;;;;;;;;;;;;;20.53;47.75;101167.05;106327;1256;74975;-89
2024/04/13 08:42:12;;;;;;;;;;;;;;;20.34;48.46;101164.36;106001;1260;69902;-85
2024/04/13 08:44:39;;;;;;;;;;;;;;;20.19;48.24;101160.21;106000;1261;73848;-90
2024/04/13 08:47:07;;;;;;;;;;;;;;;20.07;48.94;101159.77;105925;1259;62069;-86
2024/04/13 08:49:36;;;;;;;;;;;;;;;20.04;48.28;101152.65;105908;1260;61946;-90
2024/04/13 08:52:05;;;;;;;;;;;;;;;20.19;49.34;101149.84;105862;1262;77671;-90
2024/04/13 08:54:33;;;;;;;;;;;;;;;20.36;49.05;101141.78;105977;1256;69887;-90
2024/04/13 08:57:01;;;;;;;;;;;;;;;20.53;47.82;101136.52;106428;1261;74764;-90
2024/04/13 08:59:28;;;;;;;;;;;;;;;20.62;48.01;101137.17;105870;1264;62195;-85
2024/04/13 09:01:56;;;;;;;;;;;;;;;20.62;46.62;101135.98;105931;1256;62051;-85
2024/04/13 09:04:24;;;;;;;;;;;;;;;20.46;46.87;101137.16;106191;1258;76990;-85
2024/04/13 09:06:52;;;;;;;;;;;;;;;20.33;47.57;101130.08;105872;1261;69910;-90
2024/04/13 09:09:20;;;;;;;;;;;;;;;20.32;47.46;101128.51;106218;1258;75031;-90
2024/04/13 09:11:47;;;;;;;;;;;;;;;20.40;47.78;101123.46;106502;1256;60821;-91
2024/04/13 09:14:15;;;;;;;;;;;;;;;20.62;46.53;101117.89;106077;1261;63476;-86
2024/04/13 09:16:45;;;;;;;;;;;;;;;20.86;46.51;101116.42;105982;1256;77823;-85
2024/04/13 09:19:13;;;;;;;;;;;;;;;21.01;45.50;101112.86;105905;1256;71109;-89
2024/04/13 09:21:41;;;;;;;;;;;;;;;21.11;46.17;101114.69;105903;1256;73800;-91
2024/04/13 09:24:10;;;;;;;;;;;;;;;21.14;45.08;101113.63;106073;1261;62388;-85
2024/04/13 09:26:41;;;;;;;;;;;;;;;21.05;44.99;101111.35;105996;1262;62024;-90
2024/04/13 09:29:11;;;;;;;;;;;;;;;20.89;45.32;101113.09;105901;1258;77688;-84
2024/04/13 09:31:42;;;;;;;;;;;;;;;20.79;46.05;101117.66;105892;1257;67263;-84
2024/04/13 09:34:17;;;;;;;;;;;;;;;20.77;45.18;101114.87;105975;1257;75184;-90
2024/04/13 09:36:45;;;;;;;;;;;;;;;20.84;43.92;101110.33;105843;1256;62170;-85
2024/04/13 09:39:20;;;;;;;;;;;;;;;20.88;42.37;101099.91;106578;1257;62153;-91
2024/04/13 09:41:48;;;;;;;;;;;;;;;20.83;42.38;101098.69;105873;1256;77786;-90
2024/04/13 09:44:27;;;;;;;;;;;;;;;20.76;42.31;101096.84;106065;1256;70470;-85
2024/04/13 09:46:55;;;;;;;;;;;;;;;20.78;42.45;101095.72;105944;1257;73748;-89
2024/04/13 09:49:23;;;;;;;;;;;;;;;20.81;42.17;101090.60;105964;1261;62076;-85
2024/04/13 09:51:51;;;;;;;;;;;;;;;20.85;42.34;101089.80;106004;1262;62216;-90
2024/04/13 09:54:20;;;;;;;;;;;;;;;20.90;42.45;101084.22;106427;1259;77378;-90
2024/04/13 09:56:47;;;;;;;;;;;;;;;20.92;42.63;101083.50;105893;1256;71118;-84
2024/04/13 09:59:17;;;;;;;;;;;;;;;20.98;42.60;101079.86;106094;1262;74764;-84
2024/04/13 10:01:45;;;;;;;;;;;;;;;21.10;43.03;101079.16;105910;1263;62217;-85
2024/04/13 10:04:13;;;;;;;;;;;;;;;21.30;42.18;101075.17;106071;1256;61982;-89
2024/04/13 10:06:41;;;;;;;;;;;;;;;21.43;41.30;101076.85;105977;1259;76974;-90
2024/04/13 10:09:11;;;;;;;;;;;;;;;21.48;41.49;101076.56;106398;1262;72601;-90
2024/04/13 10:11:43;;;;;;;;;;;;;;;21.57;41.95;101074.90;106173;1262;76661;-85
2024/04/13 10:14:11;;;;;;;;;;;;;;;21.64;41.45;101076.44;106358;1257;62096;-85
2024/04/13 10:16:39;;;;;;;;;;;;;;;21.62;42.28;101070.11;106053;1259;61984;-85
2024/04/13 10:19:10;;;;;;;;;;;;;;;21.66;41.83;101066.12;105800;1261;76548;-89
2024/04/13 10:21:37;;;;;;;;;;;;;;;21.75;42.08;101067.39;106594;1257;70827;-90
2024/04/13 10:24:13;;;;;;;;;;;;;;;21.86;41.66;101068.20;105887;1259;75130;-90
2024/04/13 10:26:41;;;;;;;;;;;;;;;22.05;40.66;101062.20;105995;1258;62044;-86
2024/04/13 10:29:09;;;;;;;;;;;;;;;22.13;39.95;101059.06;106142;1256;62039;-89
2024/04/13 10:31:36;;;;;;;;;;;;;;;22.12;40.09;101052.05;106231;1258;75806;-84
2024/04/13 10:34:06;;;;;;;;;;;;;;;22.09;39.97;101050.37;105995;1256;68599;-84
2024/04/13 10:36:35;;;;;;;;;;;;;;;21.91;41.00;101050.80;105929;1260;73776;-84
2024/04/13 10:39:04;;;;;;;;;;;;;;;21.82;40.18;101049.05;105970;1256;62077;-90
2024/04/13 10:41:33;;;;;;;;;;;;;;;21.89;38.89;101048.31;106155;1259;237769;-84
2024/04/13 10:44:02;;;;;;;;;;;;;;;21.99;38.49;101039.73;106255;1256;78094;-83
2024/04/13 10:46:30;;;;;;;;;;;;;;;22.03;39.08;101032.48;106175;1262;68522;-85
2024/04/13 10:48:57;;;;;;;;;;;;;;;21.96;39.45;101029.79;106094;1262;73199;-85
2024/04/13 10:51:25;;;;;;;;;;;;;;;21.87;38.48;101025.41;105882;1260;62570;-86
2024/04/13 10:53:52;;;;;;;;;;;;;;;21.85;38.78;101015.26;106283;1262;62050;-92
2024/04/13 10:56:20;;;;;;;;;;;;;;;21.91;39.37;101014.18;106256;1260;76537;-84
2024/04/13 10:58:49;;;;;;;;;;;;;;;21.94;39.65;101012.62;106504;1262;71521;-85
2024/04/13 11:01:16;;;;;;;;;;;;;;;22.01;38.83;101016.44;106189;1259;74353;-84
2024/04/13 11:03:46;;;;;;;;;;;;;;;22.09;39.00;101009.89;106161;1256;62888;-85
2024/04/13 11:06:14;;;;;;;;;;;;;;;22.12;39.58;101002.51;106323;1256;62222;-88
2024/04/13 11:08:42;;;;;;;;;;;;;;;22.12;39.14;101002.77;106512;1256;77851;-89
2024/04/13 11:11:10;;;;;;;;;;;;;;;22.17;39.16;101001.67;106414;1256;69598;-89
2024/04/13 11:13:37;;;;;;;;;;;;;;;22.31;38.59;100999.79;106663;1257;73989;-89
2024/04/13 11:16:07;;;;;;;;;;;;;;;22.44;37.93;100997.52;106861;1256;62134;-84
2024/04/13 11:18:35;;;;;;;;;;;;;;;22.60;38.48;100996.36;106612;1256;61989;-85
2024/04/13 11:21:04;;;;;;;;;;;;;;;22.76;38.21;100988.34;106357;1256;76890;-86
2024/04/13 11:23:34;;;;;;;;;;;;;;;22.85;38.20;100977.56;106154;1257;70752;-86
2024/04/13 11:26:02;;;;;;;;;;;;;;;22.92;37.50;100979.70;105901;1260;74114;-86
2024/04/13 11:28:30;;;;;;;;;;;;;;;22.99;37.12;100976.30;106852;1260;62105;-83
2024/04/13 11:30:57;;;;;;;;;;;;;;;23.12;36.64;100973.67;105964;1256;61039;-85
2024/04/13 11:33:25;;;;;;;;;;;;;;;23.18;36.40;100972.58;105930;1262;77562;-89
2024/04/13 11:36:00;;;;;;;;;;;;;;;23.19;36.97;100966.55;106040;1256;70670;-84
2024/04/13 11:38:28;;;;;;;;;;;;;;;23.12;36.63;100965.39;105888;1260;74055;-84
2024/04/13 11:40:55;;;;;;;;;;;;;;;23.02;36.60;100960.54;106460;1257;62597;-91
2024/04/13 11:43:24;;;;;;;;;;;;;;;23.07;36.58;100959.48;105984;1256;62146;-85
2024/04/13 11:45:52;;;;;;;;;;;;;;;23.23;36.78;100950.09;106005;1257;76762;-85
2024/04/13 11:48:19;;;;;;;;;;;;;;;23.33;36.42;100945.98;106013;1256;71580;-90
2024/04/13 11:50:48;;;;;;;;;;;;;;;23.31;36.45;100949.61;105930;1260;74441;-89
2024/04/13 11:53:15;;;;;;;;;;;;;;;23.45;36.52;100941.73;105972;1262;62083;-89
2024/04/13 11:55:43;;;;;;;;;;;;;;;23.78;35.77;100942.90;106765;1256;60771;-91
2024/04/13 11:58:19;;;;;;;;;;;;;;;24.09;35.31;100934.70;106061;1257;75277;-91
2024/04/13 12:00:47;;;;;;;;;;;;;;;24.27;34.50;100933.08;105866;1261;69919;-86
2024/04/13 12:03:15;;;;;;;;;;;;;;;24.50;33.58;100927.53;105957;1256;74844;-90
2024/04/13 12:05:43;;;;;;;;;;;;;;;24.67;33.17;100925.14;106320;1256;62109;-86
2024/04/13 12:08:11;;;;;;;;;;;;;;;24.72;33.35;100919.27;106387;1259;62048;-89
2024/04/13 12:10:39;;;;;;;;;;;;;;;24.94;33.36;100908.80;106013;1261;69113;-91
2024/04/13 12:13:07;;;;;;;;;;;;;;;25.19;32.61;100910.70;106159;1257;62065;-90
2024/04/13 12:15:34;;;;;;;;;;;;;;;25.32;31.87;100912.02;105932;1264;66789;-87
2024/04/13 12:18:02;;;;;;;;;;;;;;;25.37;31.99;100910.15;105874;1257;62109;-86
2024/04/13 12:20:30;;;;;;;;;;;;;;;25.38;33.11;100906.96;106099;1262;62117;-85
2024/04/13 12:22:57;;;;;;;;;;;;;;;25.37;32.74;100901.73;105938;1256;67410;-86
2024/04/13 12:25:25;;;;;;;;;;;;;;;25.42;32.34;100902.88;105938;1260;62036;-85
2024/04/13 12:27:52;;;;;;;;;;;;;;;25.36;31.96;100894.44;105966;1257;67260;-90
2024/04/13 12:30:20;;;;;;;;;;;;;;;25.18;32.63;100897.52;106085;1262;62276;-85